sensor_id;sensor_type;location;lat;lon;timestamp;P1;durP1;ratioP1;P2;durP2;ratioP2
41293;SDS011;27037;52.010;4.446;2022-12-07T00:00:03;9.90;;;1.50;;
41293;SDS011;27037;52.010;4.446;2022-12-07T00:02:29;4.25;;;0.90;;
41293;SDS011;27037;52.010;4.446;2022-12-07T00:04:55;8.05;;;1.00;;
41293;SDS011;27037;52.010;4.446;2022-12-07T00:07:21;10.60;;;1.25;;
41293;SDS011;27037;52.010;4.446;2022-12-07T00:09:46;10.00;;;1.00;;
41293;SDS011;27037;52.010;4.446;2022-12-07T00:12:12;9.90;;;1.00;;
41293;SDS011;27037;52.010;4.446;2022-12-07T00:14:37;5.72;;;1.00;;
41293;SDS011;27037;52.010;4.446;2022-12-07T00:17:03;5.53;;;0.88;;
41293;SDS011;27037;52.010;4.446;2022-12-07T00:19:28;4.90;;;0.85;;
41293;SDS011;27037;52.010;4.446;2022-12-07T00:21:54;6.80;;;1.60;;
41293;SDS011;27037;52.010;4.446;2022-12-07T00:24:19;3.28;;;0.80;;
41293;SDS011;27037;52.010;4.446;2022-12-07T00:26:46;7.95;;;0.77;;
41293;SDS011;27037;52.010;4.446;2022-12-07T00:29:13;5.53;;;0.95;;
41293;SDS011;27037;52.010;4.446;2022-12-07T00:31:44;6.57;;;1.60;;
41293;SDS011;27037;52.010;4.446;2022-12-07T00:34:14;4.47;;;0.77;;
41293;SDS011;27037;52.010;4.446;2022-12-07T00:36:41;4.40;;;0.80;;
41293;SDS011;27037;52.010;4.446;2022-12-07T00:39:07;2.30;;;0.60;;
41293;SDS011;27037;52.010;4.446;2022-12-07T00:41:33;3.92;;;0.70;;
41293;SDS011;27037;52.010;4.446;2022-12-07T00:43:59;3.40;;;1.08;;
41293;SDS011;27037;52.010;4.446;2022-12-07T00:46:24;4.82;;;0.77;;
41293;SDS011;27037;52.010;4.446;2022-12-07T00:48:51;3.40;;;0.80;;
41293;SDS011;27037;52.010;4.446;2022-12-07T00:51:18;6.20;;;1.10;;
41293;SDS011;27037;52.010;4.446;2022-12-07T00:53:45;3.42;;;0.93;;
41293;SDS011;27037;52.010;4.446;2022-12-07T00:56:11;4.45;;;0.80;;
41293;SDS011;27037;52.010;4.446;2022-12-07T00:58:39;4.00;;;0.80;;
41293;SDS011;27037;52.010;4.446;2022-12-07T01:01:05;3.60;;;0.93;;
41293;SDS011;27037;52.010;4.446;2022-12-07T01:03:32;4.50;;;0.73;;
41293;SDS011;27037;52.010;4.446;2022-12-07T01:05:57;7.30;;;1.20;;
41293;SDS011;27037;52.010;4.446;2022-12-07T01:08:24;4.50;;;0.90;;
41293;SDS011;27037;52.010;4.446;2022-12-07T01:10:58;3.40;;;0.80;;
41293;SDS011;27037;52.010;4.446;2022-12-07T01:13:32;3.22;;;0.80;;
41293;SDS011;27037;52.010;4.446;2022-12-07T01:16:00;4.40;;;1.08;;
41293;SDS011;27037;52.010;4.446;2022-12-07T01:18:29;4.70;;;0.82;;
41293;SDS011;27037;52.010;4.446;2022-12-07T01:21:30;1.92;;;0.80;;
41293;SDS011;27037;52.010;4.446;2022-12-07T01:23:49;5.03;;;0.90;;
41293;SDS011;27037;52.010;4.446;2022-12-07T01:26:16;5.35;;;1.00;;
41293;SDS011;27037;52.010;4.446;2022-12-07T01:28:44;3.00;;;0.90;;
41293;SDS011;27037;52.010;4.446;2022-12-07T01:31:13;5.55;;;0.88;;
41293;SDS011;27037;52.010;4.446;2022-12-07T01:33:41;2.60;;;0.85;;
41293;SDS011;27037;52.010;4.446;2022-12-07T01:36:28;5.47;;;0.85;;
41293;SDS011;27037;52.010;4.446;2022-12-07T01:39:03;2.53;;;0.75;;
41293;SDS011;27037;52.010;4.446;2022-12-07T01:41:32;5.45;;;0.82;;
41293;SDS011;27037;52.010;4.446;2022-12-07T01:46:50;9.00;;;1.42;;
41293;SDS011;27037;52.010;4.446;2022-12-07T01:54:44;12.13;;;1.73;;
41293;SDS011;27037;52.010;4.446;2022-12-07T01:57:12;12.48;;;1.40;;
41293;SDS011;27037;52.010;4.446;2022-12-07T01:59:40;6.43;;;1.10;;
41293;SDS011;27037;52.010;4.446;2022-12-07T02:02:08;9.52;;;1.38;;
41293;SDS011;27037;52.010;4.446;2022-12-07T02:04:39;8.35;;;1.30;;
41293;SDS011;27037;52.010;4.446;2022-12-07T02:07:04;13.35;;;1.50;;
41293;SDS011;27037;52.010;4.446;2022-12-07T02:09:30;12.50;;;1.45;;
41293;SDS011;27037;52.010;4.446;2022-12-07T02:11:56;6.15;;;1.30;;
41293;SDS011;27037;52.010;4.446;2022-12-07T02:14:22;7.75;;;1.30;;
41293;SDS011;27037;52.010;4.446;2022-12-07T02:20:30;4.70;;;1.10;;
41293;SDS011;27037;52.010;4.446;2022-12-07T02:30:33;7.53;;;1.35;;
41293;SDS011;27037;52.010;4.446;2022-12-07T02:33:03;6.90;;;1.35;;
41293;SDS011;27037;52.010;4.446;2022-12-07T02:35:38;13.50;;;2.20;;
41293;SDS011;27037;52.010;4.446;2022-12-07T02:38:10;11.38;;;1.27;;
41293;SDS011;27037;52.010;4.446;2022-12-07T02:40:53;9.48;;;1.88;;
41293;SDS011;27037;52.010;4.446;2022-12-07T02:43:26;4.38;;;0.90;;
41293;SDS011;27037;52.010;4.446;2022-12-07T02:45:57;6.88;;;0.88;;
41293;SDS011;27037;52.010;4.446;2022-12-07T02:48:26;11.73;;;1.30;;
41293;SDS011;27037;52.010;4.446;2022-12-07T02:51:11;7.80;;;1.02;;
41293;SDS011;27037;52.010;4.446;2022-12-07T02:53:37;4.32;;;1.08;;
41293;SDS011;27037;52.010;4.446;2022-12-07T02:56:12;11.25;;;1.17;;
41293;SDS011;27037;52.010;4.446;2022-12-07T02:58:54;8.80;;;1.25;;
41293;SDS011;27037;52.010;4.446;2022-12-07T03:18:44;8.38;;;1.00;;
41293;SDS011;27037;52.010;4.446;2022-12-07T03:21:21;10.85;;;1.10;;
41293;SDS011;27037;52.010;4.446;2022-12-07T03:23:58;7.55;;;1.08;;
41293;SDS011;27037;52.010;4.446;2022-12-07T03:26:31;6.65;;;1.27;;
41293;SDS011;27037;52.010;4.446;2022-12-07T03:29:01;8.90;;;1.05;;
41293;SDS011;27037;52.010;4.446;2022-12-07T03:31:38;8.60;;;1.15;;
41293;SDS011;27037;52.010;4.446;2022-12-07T03:34:15;8.20;;;1.65;;
41293;SDS011;27037;52.010;4.446;2022-12-07T03:36:51;12.98;;;1.27;;
41293;SDS011;27037;52.010;4.446;2022-12-07T03:39:57;11.38;;;1.25;;
41293;SDS011;27037;52.010;4.446;2022-12-07T03:42:31;6.70;;;1.10;;
41293;SDS011;27037;52.010;4.446;2022-12-07T03:44:58;10.07;;;1.35;;
41293;SDS011;27037;52.010;4.446;2022-12-07T03:47:33;9.65;;;0.95;;
41293;SDS011;27037;52.010;4.446;2022-12-07T03:52:39;9.68;;;0.75;;
41293;SDS011;27037;52.010;4.446;2022-12-07T03:57:48;4.10;;;0.85;;
41293;SDS011;27037;52.010;4.446;2022-12-07T04:00:18;4.95;;;0.75;;
41293;SDS011;27037;52.010;4.446;2022-12-07T04:02:44;4.60;;;0.88;;
41293;SDS011;27037;52.010;4.446;2022-12-07T04:05:10;9.70;;;1.40;;
41293;SDS011;27037;52.010;4.446;2022-12-07T04:07:36;3.65;;;0.80;;
41293;SDS011;27037;52.010;4.446;2022-12-07T04:10:02;6.85;;;1.15;;
41293;SDS011;27037;52.010;4.446;2022-12-07T04:12:28;6.20;;;1.00;;
41293;SDS011;27037;52.010;4.446;2022-12-07T04:14:54;9.40;;;1.15;;
41293;SDS011;27037;52.010;4.446;2022-12-07T04:17:19;6.05;;;0.80;;
41293;SDS011;27037;52.010;4.446;2022-12-07T04:19:45;8.20;;;1.00;;
41293;SDS011;27037;52.010;4.446;2022-12-07T04:22:11;5.65;;;1.10;;
41293;SDS011;27037;52.010;4.446;2022-12-07T04:24:36;7.28;;;1.30;;
41293;SDS011;27037;52.010;4.446;2022-12-07T04:27:02;6.25;;;0.73;;
41293;SDS011;27037;52.010;4.446;2022-12-07T04:29:28;9.63;;;1.00;;
41293;SDS011;27037;52.010;4.446;2022-12-07T04:31:54;7.10;;;1.30;;
41293;SDS011;27037;52.010;4.446;2022-12-07T04:34:19;6.20;;;1.15;;
41293;SDS011;27037;52.010;4.446;2022-12-07T04:36:45;12.45;;;1.63;;
41293;SDS011;27037;52.010;4.446;2022-12-07T04:41:48;9.63;;;1.60;;
41293;SDS011;27037;52.010;4.446;2022-12-07T04:44:14;16.67;;;1.60;;
41293;SDS011;27037;52.010;4.446;2022-12-07T04:46:41;16.85;;;4.95;;
41293;SDS011;27037;52.010;4.446;2022-12-07T04:49:07;13.75;;;4.00;;
41293;SDS011;27037;52.010;4.446;2022-12-07T04:51:33;13.38;;;4.22;;
41293;SDS011;27037;52.010;4.446;2022-12-07T04:53:59;9.32;;;2.97;;
41293;SDS011;27037;52.010;4.446;2022-12-07T04:56:24;10.48;;;2.55;;
41293;SDS011;27037;52.010;4.446;2022-12-07T04:58:51;7.25;;;1.52;;
41293;SDS011;27037;52.010;4.446;2022-12-07T05:01:18;7.50;;;1.80;;
41293;SDS011;27037;52.010;4.446;2022-12-07T05:03:45;12.15;;;1.77;;
41293;SDS011;27037;52.010;4.446;2022-12-07T05:06:11;7.03;;;1.33;;
41293;SDS011;27037;52.010;4.446;2022-12-07T05:08:37;7.15;;;1.38;;
41293;SDS011;27037;52.010;4.446;2022-12-07T05:11:03;8.80;;;1.58;;
41293;SDS011;27037;52.010;4.446;2022-12-07T05:13:31;7.63;;;1.60;;
41293;SDS011;27037;52.010;4.446;2022-12-07T05:15:57;8.63;;;1.95;;
41293;SDS011;27037;52.010;4.446;2022-12-07T05:18:22;13.13;;;2.20;;
41293;SDS011;27037;52.010;4.446;2022-12-07T05:20:48;6.57;;;1.42;;
41293;SDS011;27037;52.010;4.446;2022-12-07T05:23:14;6.15;;;1.50;;
41293;SDS011;27037;52.010;4.446;2022-12-07T05:25:40;9.98;;;1.45;;
41293;SDS011;27037;52.010;4.446;2022-12-07T05:28:05;9.77;;;1.50;;
41293;SDS011;27037;52.010;4.446;2022-12-07T05:30:31;11.60;;;1.70;;
41293;SDS011;27037;52.010;4.446;2022-12-07T05:32:57;8.43;;;1.40;;
41293;SDS011;27037;52.010;4.446;2022-12-07T05:35:24;5.38;;;1.30;;
41293;SDS011;27037;52.010;4.446;2022-12-07T05:37:49;8.82;;;1.50;;
41293;SDS011;27037;52.010;4.446;2022-12-07T05:40:15;6.15;;;1.15;;
41293;SDS011;27037;52.010;4.446;2022-12-07T05:42:41;7.88;;;1.27;;
41293;SDS011;27037;52.010;4.446;2022-12-07T05:45:08;5.13;;;1.50;;
41293;SDS011;27037;52.010;4.446;2022-12-07T05:47:34;3.67;;;1.30;;
41293;SDS011;27037;52.010;4.446;2022-12-07T05:50:00;7.80;;;1.20;;
41293;SDS011;27037;52.010;4.446;2022-12-07T05:52:26;6.60;;;1.48;;
41293;SDS011;27037;52.010;4.446;2022-12-07T05:54:52;9.20;;;1.58;;
41293;SDS011;27037;52.010;4.446;2022-12-07T05:57:18;7.38;;;1.30;;
41293;SDS011;27037;52.010;4.446;2022-12-07T05:59:43;7.72;;;1.35;;
41293;SDS011;27037;52.010;4.446;2022-12-07T06:02:10;7.10;;;1.50;;
41293;SDS011;27037;52.010;4.446;2022-12-07T06:04:42;6.47;;;1.48;;
41293;SDS011;27037;52.010;4.446;2022-12-07T06:07:10;4.93;;;1.58;;
41293;SDS011;27037;52.010;4.446;2022-12-07T06:09:37;7.63;;;1.75;;
41293;SDS011;27037;52.010;4.446;2022-12-07T06:12:03;5.13;;;1.48;;
41293;SDS011;27037;52.010;4.446;2022-12-07T06:14:47;5.53;;;1.70;;
41293;SDS011;27037;52.010;4.446;2022-12-07T06:17:13;3.78;;;1.40;;
41293;SDS011;27037;52.010;4.446;2022-12-07T06:19:40;6.95;;;1.30;;
41293;SDS011;27037;52.010;4.446;2022-12-07T06:22:06;6.45;;;1.50;;
41293;SDS011;27037;52.010;4.446;2022-12-07T06:24:34;5.28;;;1.77;;
41293;SDS011;27037;52.010;4.446;2022-12-07T06:27:01;8.68;;;1.60;;
41293;SDS011;27037;52.010;4.446;2022-12-07T06:29:26;5.82;;;1.60;;
41293;SDS011;27037;52.010;4.446;2022-12-07T06:31:52;9.73;;;1.88;;
41293;SDS011;27037;52.010;4.446;2022-12-07T06:34:19;3.60;;;1.30;;
41293;SDS011;27037;52.010;4.446;2022-12-07T06:36:47;6.78;;;1.35;;
41293;SDS011;27037;52.010;4.446;2022-12-07T06:39:16;3.90;;;1.27;;
41293;SDS011;27037;52.010;4.446;2022-12-07T06:41:49;4.53;;;1.33;;
41293;SDS011;27037;52.010;4.446;2022-12-07T06:44:16;6.38;;;1.88;;
41293;SDS011;27037;52.010;4.446;2022-12-07T06:46:42;10.05;;;2.10;;
41293;SDS011;27037;52.010;4.446;2022-12-07T06:49:08;9.57;;;2.03;;
41293;SDS011;27037;52.010;4.446;2022-12-07T06:51:34;12.68;;;2.42;;
41293;SDS011;27037;52.010;4.446;2022-12-07T06:54:01;18.38;;;2.08;;
41293;SDS011;27037;52.010;4.446;2022-12-07T06:56:28;15.13;;;1.75;;
41293;SDS011;27037;52.010;4.446;2022-12-07T06:58:54;10.70;;;1.67;;
41293;SDS011;27037;52.010;4.446;2022-12-07T07:01:19;9.88;;;1.45;;
41293;SDS011;27037;52.010;4.446;2022-12-07T07:03:45;11.48;;;1.73;;
41293;SDS011;27037;52.010;4.446;2022-12-07T07:06:12;5.78;;;1.55;;
41293;SDS011;27037;52.010;4.446;2022-12-07T07:08:38;12.85;;;2.03;;
41293;SDS011;27037;52.010;4.446;2022-12-07T07:11:04;12.60;;;2.00;;
41293;SDS011;27037;52.010;4.446;2022-12-07T07:13:31;9.52;;;1.85;;
41293;SDS011;27037;52.010;4.446;2022-12-07T07:15:57;9.05;;;1.67;;
41293;SDS011;27037;52.010;4.446;2022-12-07T07:18:23;7.82;;;2.28;;
41293;SDS011;27037;52.010;4.446;2022-12-07T07:20:52;9.85;;;2.08;;
41293;SDS011;27037;52.010;4.446;2022-12-07T07:23:18;9.15;;;2.65;;
41293;SDS011;27037;52.010;4.446;2022-12-07T07:25:45;7.82;;;2.75;;
41293;SDS011;27037;52.010;4.446;2022-12-07T07:28:11;10.23;;;4.03;;
41293;SDS011;27037;52.010;4.446;2022-12-07T07:30:36;11.70;;;2.88;;
41293;SDS011;27037;52.010;4.446;2022-12-07T07:33:02;13.63;;;2.45;;
41293;SDS011;27037;52.010;4.446;2022-12-07T07:35:29;9.23;;;1.73;;
41293;SDS011;27037;52.010;4.446;2022-12-07T07:37:56;8.15;;;1.45;;
41293;SDS011;27037;52.010;4.446;2022-12-07T07:40:22;10.68;;;1.50;;
41293;SDS011;27037;52.010;4.446;2022-12-07T07:42:49;8.90;;;1.13;;
41293;SDS011;27037;52.010;4.446;2022-12-07T07:45:15;6.50;;;1.10;;
41293;SDS011;27037;52.010;4.446;2022-12-07T07:47:41;9.63;;;1.00;;
41293;SDS011;27037;52.010;4.446;2022-12-07T07:50:06;16.63;;;1.50;;
41293;SDS011;27037;52.010;4.446;2022-12-07T07:52:32;16.23;;;1.63;;
41293;SDS011;27037;52.010;4.446;2022-12-07T07:54:58;7.03;;;1.27;;
41293;SDS011;27037;52.010;4.446;2022-12-07T07:57:23;10.23;;;1.30;;
41293;SDS011;27037;52.010;4.446;2022-12-07T07:59:49;10.55;;;1.60;;
41293;SDS011;27037;52.010;4.446;2022-12-07T08:02:16;9.55;;;1.40;;
41293;SDS011;27037;52.010;4.446;2022-12-07T08:04:43;7.78;;;2.00;;
41293;SDS011;27037;52.010;4.446;2022-12-07T08:07:09;6.82;;;1.40;;
41293;SDS011;27037;52.010;4.446;2022-12-07T08:09:35;12.88;;;1.65;;
41293;SDS011;27037;52.010;4.446;2022-12-07T08:12:01;8.27;;;1.67;;
41293;SDS011;27037;52.010;4.446;2022-12-07T08:14:26;8.40;;;1.70;;
41293;SDS011;27037;52.010;4.446;2022-12-07T08:16:53;18.65;;;2.63;;
41293;SDS011;27037;52.010;4.446;2022-12-07T08:19:19;7.40;;;1.45;;
41293;SDS011;27037;52.010;4.446;2022-12-07T08:21:45;9.27;;;1.52;;
41293;SDS011;27037;52.010;4.446;2022-12-07T08:24:11;7.10;;;1.58;;
41293;SDS011;27037;52.010;4.446;2022-12-07T08:26:36;8.00;;;1.48;;
41293;SDS011;27037;52.010;4.446;2022-12-07T08:29:02;9.38;;;1.83;;
41293;SDS011;27037;52.010;4.446;2022-12-07T08:31:28;11.95;;;1.58;;
41293;SDS011;27037;52.010;4.446;2022-12-07T08:33:54;5.32;;;1.58;;
41293;SDS011;27037;52.010;4.446;2022-12-07T08:36:19;6.35;;;1.25;;
41293;SDS011;27037;52.010;4.446;2022-12-07T08:38:46;10.00;;;2.80;;
41293;SDS011;27037;52.010;4.446;2022-12-07T08:41:12;5.45;;;2.10;;
41293;SDS011;27037;52.010;4.446;2022-12-07T08:43:37;6.30;;;1.90;;
41293;SDS011;27037;52.010;4.446;2022-12-07T08:46:08;6.63;;;2.00;;
41293;SDS011;27037;52.010;4.446;2022-12-07T08:48:42;5.90;;;2.00;;
41293;SDS011;27037;52.010;4.446;2022-12-07T08:51:13;8.63;;;2.20;;
41293;SDS011;27037;52.010;4.446;2022-12-07T08:53:39;6.07;;;1.77;;
41293;SDS011;27037;52.010;4.446;2022-12-07T08:56:06;8.32;;;1.83;;
41293;SDS011;27037;52.010;4.446;2022-12-07T08:58:33;6.38;;;1.98;;
41293;SDS011;27037;52.010;4.446;2022-12-07T09:01:00;8.25;;;1.95;;
41293;SDS011;27037;52.010;4.446;2022-12-07T09:03:26;9.70;;;2.08;;
41293;SDS011;27037;52.010;4.446;2022-12-07T09:05:52;7.45;;;1.70;;
41293;SDS011;27037;52.010;4.446;2022-12-07T09:08:18;10.80;;;2.00;;
41293;SDS011;27037;52.010;4.446;2022-12-07T09:10:45;10.30;;;2.05;;
41293;SDS011;27037;52.010;4.446;2022-12-07T09:13:11;10.90;;;2.22;;
41293;SDS011;27037;52.010;4.446;2022-12-07T09:15:37;11.52;;;2.35;;
41293;SDS011;27037;52.010;4.446;2022-12-07T09:18:02;9.50;;;2.35;;
41293;SDS011;27037;52.010;4.446;2022-12-07T09:20:29;9.73;;;2.05;;
41293;SDS011;27037;52.010;4.446;2022-12-07T09:22:55;7.53;;;2.25;;
41293;SDS011;27037;52.010;4.446;2022-12-07T09:25:20;10.90;;;1.65;;
41293;SDS011;27037;52.010;4.446;2022-12-07T09:27:48;8.25;;;1.40;;
41293;SDS011;27037;52.010;4.446;2022-12-07T09:30:19;8.32;;;1.60;;
41293;SDS011;27037;52.010;4.446;2022-12-07T09:32:45;8.07;;;2.05;;
41293;SDS011;27037;52.010;4.446;2022-12-07T09:35:10;8.85;;;1.92;;
41293;SDS011;27037;52.010;4.446;2022-12-07T09:37:36;11.68;;;2.53;;
41293;SDS011;27037;52.010;4.446;2022-12-07T09:40:02;8.23;;;2.33;;
41293;SDS011;27037;52.010;4.446;2022-12-07T09:45:00;11.32;;;2.80;;
41293;SDS011;27037;52.010;4.446;2022-12-07T09:47:26;11.50;;;2.70;;
41293;SDS011;27037;52.010;4.446;2022-12-07T09:49:55;10.48;;;2.53;;
41293;SDS011;27037;52.010;4.446;2022-12-07T09:52:28;9.65;;;2.40;;
41293;SDS011;27037;52.010;4.446;2022-12-07T09:54:55;13.43;;;2.95;;
41293;SDS011;27037;52.010;4.446;2022-12-07T09:57:24;9.40;;;2.50;;
41293;SDS011;27037;52.010;4.446;2022-12-07T09:59:57;6.70;;;2.38;;
41293;SDS011;27037;52.010;4.446;2022-12-07T10:05:00;5.93;;;2.00;;
41293;SDS011;27037;52.010;4.446;2022-12-07T10:07:26;12.90;;;2.45;;
41293;SDS011;27037;52.010;4.446;2022-12-07T10:09:51;10.73;;;2.45;;
41293;SDS011;27037;52.010;4.446;2022-12-07T10:12:17;7.38;;;2.53;;
41293;SDS011;27037;52.010;4.446;2022-12-07T10:14:56;10.27;;;2.17;;
41293;SDS011;27037;52.010;4.446;2022-12-07T10:17:32;10.00;;;2.13;;
41293;SDS011;27037;52.010;4.446;2022-12-07T10:20:34;8.70;;;2.53;;
41293;SDS011;27037;52.010;4.446;2022-12-07T10:25:31;8.95;;;1.70;;
41293;SDS011;27037;52.010;4.446;2022-12-07T10:28:17;8.82;;;1.58;;
41293;SDS011;27037;52.010;4.446;2022-12-07T10:30:51;9.73;;;1.47;;
41293;SDS011;27037;52.010;4.446;2022-12-07T10:33:37;8.82;;;1.73;;
41293;SDS011;27037;52.010;4.446;2022-12-07T10:36:29;7.13;;;2.30;;
41293;SDS011;27037;52.010;4.446;2022-12-07T10:41:28;10.35;;;2.20;;
41293;SDS011;27037;52.010;4.446;2022-12-07T10:43:55;9.32;;;2.40;;
41293;SDS011;27037;52.010;4.446;2022-12-07T10:57:20;6.80;;;1.10;;
41293;SDS011;27037;52.010;4.446;2022-12-07T11:05:27;5.05;;;1.10;;
41293;SDS011;27037;52.010;4.446;2022-12-07T11:10:55;11.77;;;1.30;;
41293;SDS011;27037;52.010;4.446;2022-12-07T11:16:23;5.72;;;0.90;;
41293;SDS011;27037;52.010;4.446;2022-12-07T11:19:04;8.50;;;1.20;;
41293;SDS011;27037;52.010;4.446;2022-12-07T11:21:56;9.80;;;1.40;;
41293;SDS011;27037;52.010;4.446;2022-12-07T11:27:20;6.63;;;0.98;;
41293;SDS011;27037;52.010;4.446;2022-12-07T11:30:08;6.57;;;1.23;;
41293;SDS011;27037;52.010;4.446;2022-12-07T11:38:42;3.08;;;0.70;;
41293;SDS011;27037;52.010;4.446;2022-12-07T11:41:09;5.05;;;0.80;;
41293;SDS011;27037;52.010;4.446;2022-12-07T11:43:37;5.93;;;1.02;;
41293;SDS011;27037;52.010;4.446;2022-12-07T11:46:29;7.03;;;0.95;;
41293;SDS011;27037;52.010;4.446;2022-12-07T11:52:13;4.25;;;0.80;;
41293;SDS011;27037;52.010;4.446;2022-12-07T11:54:47;4.40;;;0.90;;
41293;SDS011;27037;52.010;4.446;2022-12-07T11:57:19;5.35;;;1.05;;
41293;SDS011;27037;52.010;4.446;2022-12-07T11:59:57;5.60;;;1.10;;
41293;SDS011;27037;52.010;4.446;2022-12-07T12:02:38;6.40;;;1.27;;
41293;SDS011;27037;52.010;4.446;2022-12-07T12:05:16;4.28;;;1.10;;
41293;SDS011;27037;52.010;4.446;2022-12-07T12:07:44;2.80;;;1.00;;
41293;SDS011;27037;52.010;4.446;2022-12-07T12:17:49;9.43;;;1.50;;
41293;SDS011;27037;52.010;4.446;2022-12-07T12:20:29;6.85;;;1.40;;
41293;SDS011;27037;52.010;4.446;2022-12-07T12:25:59;5.32;;;1.20;;
41293;SDS011;27037;52.010;4.446;2022-12-07T12:28:29;4.63;;;0.95;;
41293;SDS011;27037;52.010;4.446;2022-12-07T12:31:06;6.78;;;1.10;;
41293;SDS011;27037;52.010;4.446;2022-12-07T12:33:36;7.65;;;1.25;;
41293;SDS011;27037;52.010;4.446;2022-12-07T12:39:07;6.28;;;1.20;;
41293;SDS011;27037;52.010;4.446;2022-12-07T12:51:57;3.85;;;0.98;;
41293;SDS011;27037;52.010;4.446;2022-12-07T12:54:26;6.18;;;1.30;;
41293;SDS011;27037;52.010;4.446;2022-12-07T12:56:55;9.40;;;1.00;;
41293;SDS011;27037;52.010;4.446;2022-12-07T13:13:00;2.53;;;0.70;;
41293;SDS011;27037;52.010;4.446;2022-12-07T13:18:23;3.75;;;0.70;;
41293;SDS011;27037;52.010;4.446;2022-12-07T13:23:55;4.13;;;0.60;;
41293;SDS011;27037;52.010;4.446;2022-12-07T13:26:42;1.70;;;0.75;;
41293;SDS011;27037;52.010;4.446;2022-12-07T13:29:13;3.45;;;0.65;;
41293;SDS011;27037;52.010;4.446;2022-12-07T13:36:53;3.70;;;0.63;;
41293;SDS011;27037;52.010;4.446;2022-12-07T13:39:21;6.18;;;0.95;;
41293;SDS011;27037;52.010;4.446;2022-12-07T13:41:55;3.88;;;0.77;;
41293;SDS011;27037;52.010;4.446;2022-12-07T13:44:23;4.97;;;0.80;;
41293;SDS011;27037;52.010;4.446;2022-12-07T13:49:25;3.03;;;0.70;;
41293;SDS011;27037;52.010;4.446;2022-12-07T13:52:06;6.32;;;0.70;;
41293;SDS011;27037;52.010;4.446;2022-12-07T13:54:55;3.10;;;0.80;;
41293;SDS011;27037;52.010;4.446;2022-12-07T13:57:21;2.45;;;0.80;;
41293;SDS011;27037;52.010;4.446;2022-12-07T13:59:48;3.90;;;0.98;;
41293;SDS011;27037;52.010;4.446;2022-12-07T14:02:27;4.95;;;0.75;;
41293;SDS011;27037;52.010;4.446;2022-12-07T14:05:09;5.60;;;0.90;;
41293;SDS011;27037;52.010;4.446;2022-12-07T14:12:52;5.18;;;1.00;;
41293;SDS011;27037;52.010;4.446;2022-12-07T14:15:20;5.10;;;1.02;;
41293;SDS011;27037;52.010;4.446;2022-12-07T14:17:51;5.35;;;0.85;;
41293;SDS011;27037;52.010;4.446;2022-12-07T14:20:28;3.45;;;1.00;;
41293;SDS011;27037;52.010;4.446;2022-12-07T14:23:01;5.00;;;0.70;;
41293;SDS011;27037;52.010;4.446;2022-12-07T14:25:43;8.23;;;1.13;;
41293;SDS011;27037;52.010;4.446;2022-12-07T14:28:33;4.70;;;1.08;;
41293;SDS011;27037;52.010;4.446;2022-12-07T14:31:00;7.13;;;0.98;;
41293;SDS011;27037;52.010;4.446;2022-12-07T14:33:27;8.77;;;1.50;;
41293;SDS011;27037;52.010;4.446;2022-12-07T14:35:53;6.40;;;1.20;;
41293;SDS011;27037;52.010;4.446;2022-12-07T14:38:23;7.65;;;1.02;;
41293;SDS011;27037;52.010;4.446;2022-12-07T14:40:50;6.03;;;1.00;;
41293;SDS011;27037;52.010;4.446;2022-12-07T14:43:17;7.75;;;1.05;;
41293;SDS011;27037;52.010;4.446;2022-12-07T14:45:43;7.32;;;0.90;;
41293;SDS011;27037;52.010;4.446;2022-12-07T14:48:12;7.47;;;1.40;;
41293;SDS011;27037;52.010;4.446;2022-12-07T14:50:41;7.20;;;1.23;;
41293;SDS011;27037;52.010;4.446;2022-12-07T14:53:11;4.57;;;1.23;;
41293;SDS011;27037;52.010;4.446;2022-12-07T14:55:39;9.38;;;1.40;;
41293;SDS011;27037;52.010;4.446;2022-12-07T14:58:05;9.18;;;1.80;;
41293;SDS011;27037;52.010;4.446;2022-12-07T15:00:31;7.47;;;1.40;;
41293;SDS011;27037;52.010;4.446;2022-12-07T15:02:58;11.57;;;1.50;;
41293;SDS011;27037;52.010;4.446;2022-12-07T15:05:24;11.80;;;1.63;;
41293;SDS011;27037;52.010;4.446;2022-12-07T15:07:49;9.68;;;1.65;;
41293;SDS011;27037;52.010;4.446;2022-12-07T15:10:17;10.00;;;1.42;;
41293;SDS011;27037;52.010;4.446;2022-12-07T15:12:45;5.22;;;1.30;;
41293;SDS011;27037;52.010;4.446;2022-12-07T15:15:11;8.02;;;1.63;;
41293;SDS011;27037;52.010;4.446;2022-12-07T15:17:37;5.38;;;1.45;;
41293;SDS011;27037;52.010;4.446;2022-12-07T15:20:03;4.63;;;1.45;;
41293;SDS011;27037;52.010;4.446;2022-12-07T15:22:29;8.88;;;1.52;;
41293;SDS011;27037;52.010;4.446;2022-12-07T15:24:56;7.97;;;1.50;;
41293;SDS011;27037;52.010;4.446;2022-12-07T15:27:22;6.55;;;1.15;;
41293;SDS011;27037;52.010;4.446;2022-12-07T15:29:47;7.22;;;1.23;;
41293;SDS011;27037;52.010;4.446;2022-12-07T15:32:13;8.77;;;1.33;;
41293;SDS011;27037;52.010;4.446;2022-12-07T15:34:39;8.75;;;1.73;;
41293;SDS011;27037;52.010;4.446;2022-12-07T15:37:04;4.28;;;1.23;;
41293;SDS011;27037;52.010;4.446;2022-12-07T15:39:30;6.45;;;1.80;;
41293;SDS011;27037;52.010;4.446;2022-12-07T15:41:56;10.02;;;1.48;;
41293;SDS011;27037;52.010;4.446;2022-12-07T15:44:21;6.97;;;1.73;;
41293;SDS011;27037;52.010;4.446;2022-12-07T15:47:06;6.07;;;1.70;;
41293;SDS011;27037;52.010;4.446;2022-12-07T15:49:31;9.55;;;1.75;;
41293;SDS011;27037;52.010;4.446;2022-12-07T15:51:57;7.40;;;1.90;;
41293;SDS011;27037;52.010;4.446;2022-12-07T15:54:24;4.18;;;1.45;;
41293;SDS011;27037;52.010;4.446;2022-12-07T15:56:51;8.57;;;1.55;;
41293;SDS011;27037;52.010;4.446;2022-12-07T15:59:16;7.28;;;1.33;;
41293;SDS011;27037;52.010;4.446;2022-12-07T16:01:42;7.07;;;1.48;;
41293;SDS011;27037;52.010;4.446;2022-12-07T16:04:08;5.32;;;1.55;;
41293;SDS011;27037;52.010;4.446;2022-12-07T16:06:34;5.63;;;1.38;;
41293;SDS011;27037;52.010;4.446;2022-12-07T16:08:59;4.40;;;1.40;;
41293;SDS011;27037;52.010;4.446;2022-12-07T16:11:25;7.75;;;1.65;;
41293;SDS011;27037;52.010;4.446;2022-12-07T16:13:51;6.03;;;1.52;;
41293;SDS011;27037;52.010;4.446;2022-12-07T16:16:17;5.45;;;1.73;;
41293;SDS011;27037;52.010;4.446;2022-12-07T16:18:44;7.07;;;1.88;;
41293;SDS011;27037;52.010;4.446;2022-12-07T16:21:11;8.90;;;1.92;;
41293;SDS011;27037;52.010;4.446;2022-12-07T16:23:37;5.35;;;1.80;;
41293;SDS011;27037;52.010;4.446;2022-12-07T16:26:07;7.35;;;2.00;;
41293;SDS011;27037;52.010;4.446;2022-12-07T16:28:35;6.53;;;1.50;;
41293;SDS011;27037;52.010;4.446;2022-12-07T16:31:06;5.28;;;1.60;;
41293;SDS011;27037;52.010;4.446;2022-12-07T16:33:35;6.45;;;1.73;;
41293;SDS011;27037;52.010;4.446;2022-12-07T16:36:01;4.35;;;1.60;;
41293;SDS011;27037;52.010;4.446;2022-12-07T16:38:28;8.05;;;1.75;;
41293;SDS011;27037;52.010;4.446;2022-12-07T16:40:53;8.45;;;2.00;;
41293;SDS011;27037;52.010;4.446;2022-12-07T16:43:19;6.97;;;1.70;;
41293;SDS011;27037;52.010;4.446;2022-12-07T16:45:45;7.75;;;2.00;;
41293;SDS011;27037;52.010;4.446;2022-12-07T16:48:12;7.57;;;1.65;;
41293;SDS011;27037;52.010;4.446;2022-12-07T16:50:39;6.03;;;1.88;;
41293;SDS011;27037;52.010;4.446;2022-12-07T16:53:06;10.77;;;1.90;;
41293;SDS011;27037;52.010;4.446;2022-12-07T16:55:39;6.55;;;2.10;;
41293;SDS011;27037;52.010;4.446;2022-12-07T16:58:06;8.43;;;2.28;;
41293;SDS011;27037;52.010;4.446;2022-12-07T17:00:32;5.85;;;1.60;;
41293;SDS011;27037;52.010;4.446;2022-12-07T17:02:58;7.10;;;1.60;;
41293;SDS011;27037;52.010;4.446;2022-12-07T17:05:25;7.35;;;1.80;;
41293;SDS011;27037;52.010;4.446;2022-12-07T17:07:53;7.32;;;1.88;;
41293;SDS011;27037;52.010;4.446;2022-12-07T17:10:18;8.25;;;2.03;;
41293;SDS011;27037;52.010;4.446;2022-12-07T17:12:44;15.18;;;2.65;;
41293;SDS011;27037;52.010;4.446;2022-12-07T17:15:09;11.65;;;1.98;;
41293;SDS011;27037;52.010;4.446;2022-12-07T17:17:41;8.60;;;2.30;;
41293;SDS011;27037;52.010;4.446;2022-12-07T17:20:09;9.70;;;3.25;;